sensor_id;sensor_type;location;lat;lon;timestamp;pressure;altitude;pressure_sealevel;temperature;humidity
60417;BME280;46263;44.726;10.396;2023-11-21T00:00:33;99931.78;;;14.46;70.33
60417;BME280;46263;44.726;10.396;2023-11-21T00:02:59;99925.22;;;14.44;70.68
60417;BME280;46263;44.726;10.396;2023-11-21T00:05:24;99921.09;;;14.45;70.73
60417;BME280;46263;44.726;10.396;2023-11-21T00:07:49;99913.59;;;14.55;70.08
60417;BME280;46263;44.726;10.396;2023-11-21T00:10:16;99912.84;;;14.54;70.28
60417;BME280;46263;44.726;10.396;2023-11-21T00:12:42;99925.03;;;14.57;69.63
60417;BME280;46263;44.726;10.396;2023-11-21T00:15:08;99937.41;;;14.54;70.19
60417;BME280;46263;44.726;10.396;2023-11-21T00:17:37;99926.72;;;14.52;69.54
60417;BME280;46263;44.726;10.396;2023-11-21T00:20:05;99917.91;;;14.56;69.94
60417;BME280;46263;44.726;10.396;2023-11-21T00:22:35;99903.28;;;14.57;69.90
60417;BME280;46263;44.726;10.396;2023-11-21T00:25:01;99897.47;;;14.63;69.23
60417;BME280;46263;44.726;10.396;2023-11-21T00:27:28;99885.28;;;14.60;69.77
60417;BME280;46263;44.726;10.396;2023-11-21T00:29:54;99863.94;;;14.57;69.54
60417;BME280;46263;44.726;10.396;2023-11-21T00:32:19;99855.66;;;14.52;70.51
60417;BME280;46263;44.726;10.396;2023-11-21T00:34:45;99841.78;;;14.54;69.90
60417;BME280;46263;44.726;10.396;2023-11-21T00:37:10;99831.13;;;14.45;70.39
60417;BME280;46263;44.726;10.396;2023-11-21T00:39:36;99826.97;;;14.46;70.04
60417;BME280;46263;44.726;10.396;2023-11-21T00:42:01;99811.59;;;14.47;70.50
60417;BME280;46263;44.726;10.396;2023-11-21T00:44:26;99807.47;;;14.55;70.16
60417;BME280;46263;44.726;10.396;2023-11-21T00:46:52;99796.78;;;14.54;69.65
60417;BME280;46263;44.726;10.396;2023-11-21T00:49:17;99811.78;;;14.49;70.35
60417;BME280;46263;44.726;10.396;2023-11-21T00:51:43;99825.28;;;14.35;71.26
60417;BME280;46263;44.726;10.396;2023-11-21T00:54:08;99841.53;;;14.07;71.69
60417;BME280;46263;44.726;10.396;2023-11-21T00:56:33;99852.31;;;13.73;74.06
60417;BME280;46263;44.726;10.396;2023-11-21T00:58:59;99861.81;;;13.55;75.23
60417;BME280;46263;44.726;10.396;2023-11-21T01:01:24;99865.78;;;13.67;74.99
60417;BME280;46263;44.726;10.396;2023-11-21T01:03:50;99860.97;;;13.90;74.02
60417;BME280;46263;44.726;10.396;2023-11-21T01:06:16;99865.28;;;13.91;74.57
60417;BME280;46263;44.726;10.396;2023-11-21T01:08:43;99866.28;;;14.09;73.99
60417;BME280;46263;44.726;10.396;2023-11-21T01:11:08;99864.59;;;14.06;74.52
60417;BME280;46263;44.726;10.396;2023-11-21T01:13:35;99861.47;;;14.24;74.60
60417;BME280;46263;44.726;10.396;2023-11-21T01:16:01;99865.78;;;14.25;74.09
60417;BME280;46263;44.726;10.396;2023-11-21T01:18:26;99866.16;;;14.29;73.94
60417;BME280;46263;44.726;10.396;2023-11-21T01:20:52;99871.03;;;14.29;74.53
60417;BME280;46263;44.726;10.396;2023-11-21T01:23:21;99870.44;;;14.30;74.65
60417;BME280;46263;44.726;10.396;2023-11-21T01:25:47;99861.28;;;14.30;75.17
60417;BME280;46263;44.726;10.396;2023-11-21T01:28:12;99864.06;;;14.22;75.62
60417;BME280;46263;44.726;10.396;2023-11-21T01:30:38;99870.47;;;14.23;75.29
60417;BME280;46263;44.726;10.396;2023-11-21T01:33:04;99868.22;;;14.21;75.87
60417;BME280;46263;44.726;10.396;2023-11-21T01:35:29;99862.97;;;14.25;75.83
60417;BME280;46263;44.726;10.396;2023-11-21T01:37:55;99860.31;;;14.20;75.84
60417;BME280;46263;44.726;10.396;2023-11-21T01:40:21;99874.75;;;14.31;75.53
60417;BME280;46263;44.726;10.396;2023-11-21T01:42:46;99867.28;;;14.41;75.15
60417;BME280;46263;44.726;10.396;2023-11-21T01:45:14;99868.97;;;14.44;75.58
60417;BME280;46263;44.726;10.396;2023-11-21T01:47:40;99862.22;;;14.47;74.98
60417;BME280;46263;44.726;10.396;2023-11-21T01:50:08;99853.25;;;14.48;75.61
60417;BME280;46263;44.726;10.396;2023-11-21T01:52:36;99862.97;;;14.40;75.67
60417;BME280;46263;44.726;10.396;2023-11-21T01:55:03;99855.66;;;14.44;75.31
60417;BME280;46263;44.726;10.396;2023-11-21T01:57:29;99853.03;;;14.32;76.12
60417;BME280;46263;44.726;10.396;2023-11-21T01:59:55;99868.75;;;14.20;76.75
60417;BME280;46263;44.726;10.396;2023-11-21T02:02:22;99866.47;;;14.03;77.54
60417;BME280;46263;44.726;10.396;2023-11-21T02:04:47;99865.09;;;13.89;77.96
60417;BME280;46263;44.726;10.396;2023-11-21T02:07:12;99867.19;;;13.96;77.51
60417;BME280;46263;44.726;10.396;2023-11-21T02:09:38;99863.50;;;14.16;76.73
60417;BME280;46263;44.726;10.396;2023-11-21T02:12:04;99883.00;;;14.22;76.15
60417;BME280;46263;44.726;10.396;2023-11-21T02:14:30;99878.53;;;14.34;75.87
60417;BME280;46263;44.726;10.396;2023-11-21T02:16:56;99867.63;;;14.30;75.97
60417;BME280;46263;44.726;10.396;2023-11-21T02:19:22;99868.03;;;14.34;75.45
60417;BME280;46263;44.726;10.396;2023-11-21T02:21:51;99864.47;;;14.34;75.85
60417;BME280;46263;44.726;10.396;2023-11-21T02:24:20;99848.53;;;14.43;75.16
60417;BME280;46263;44.726;10.396;2023-11-21T02:26:46;99837.66;;;14.40;75.09
60417;BME280;46263;44.726;10.396;2023-11-21T02:29:12;99840.28;;;14.38;74.97
60417;BME280;46263;44.726;10.396;2023-11-21T02:31:38;99835.97;;;14.44;75.05
60417;BME280;46263;44.726;10.396;2023-11-21T02:34:14;99831.66;;;14.43;73.92
60417;BME280;46263;44.726;10.396;2023-11-21T02:36:39;99835.78;;;14.50;73.82
60417;BME280;46263;44.726;10.396;2023-11-21T02:39:05;99827.72;;;14.54;73.70
60417;BME280;46263;44.726;10.396;2023-11-21T02:41:32;99823.41;;;14.60;73.33
60417;BME280;46263;44.726;10.396;2023-11-21T02:43:58;99832.59;;;14.61;73.65
60417;BME280;46263;44.726;10.396;2023-11-21T02:46:23;99838.78;;;14.67;73.69
60417;BME280;46263;44.726;10.396;2023-11-21T02:48:48;99842.53;;;14.62;73.42
60417;BME280;46263;44.726;10.396;2023-11-21T02:51:16;99839.53;;;14.60;72.89
60417;BME280;46263;44.726;10.396;2023-11-21T02:53:41;99832.41;;;14.59;72.91
60417;BME280;46263;44.726;10.396;2023-11-21T02:56:07;99827.91;;;14.56;73.38
60417;BME280;46263;44.726;10.396;2023-11-21T02:58:32;99823.44;;;14.53;74.53
60417;BME280;46263;44.726;10.396;2023-11-21T03:00:58;99829.03;;;14.45;74.66
60417;BME280;46263;44.726;10.396;2023-11-21T03:03:24;99824.75;;;14.37;75.05
60417;BME280;46263;44.726;10.396;2023-11-21T03:05:49;99821.53;;;14.33;75.42
60417;BME280;46263;44.726;10.396;2023-11-21T03:08:15;99813.09;;;14.48;74.55
60417;BME280;46263;44.726;10.396;2023-11-21T03:10:40;99817.41;;;14.49;74.72
60417;BME280;46263;44.726;10.396;2023-11-21T03:13:06;99814.03;;;14.35;75.30
60417;BME280;46263;44.726;10.396;2023-11-21T03:15:31;99820.44;;;14.36;75.36
60417;BME280;46263;44.726;10.396;2023-11-21T03:17:58;99812.94;;;14.38;74.78
60417;BME280;46263;44.726;10.396;2023-11-21T03:20:23;99810.28;;;14.48;74.73
60417;BME280;46263;44.726;10.396;2023-11-21T03:22:49;99794.56;;;14.45;74.87
60417;BME280;46263;44.726;10.396;2023-11-21T03:25:15;99786.28;;;14.54;74.99
60417;BME280;46263;44.726;10.396;2023-11-21T03:27:42;99787.03;;;14.55;74.79
60417;BME280;46263;44.726;10.396;2023-11-21T03:30:09;99795.31;;;14.45;74.78
60417;BME280;46263;44.726;10.396;2023-11-21T03:32:36;99791.94;;;14.39;74.86
60417;BME280;46263;44.726;10.396;2023-11-21T03:35:02;99795.31;;;14.45;74.45
60417;BME280;46263;44.726;10.396;2023-11-21T03:37:28;99789.09;;;14.47;74.08
60417;BME280;46263;44.726;10.396;2023-11-21T03:39:54;99802.97;;;14.30;75.06
60417;BME280;46263;44.726;10.396;2023-11-21T03:42:20;99791.75;;;14.37;74.81
60417;BME280;46263;44.726;10.396;2023-11-21T03:44:45;99789.69;;;14.23;74.26
60417;BME280;46263;44.726;10.396;2023-11-21T03:47:11;99784.06;;;14.38;73.83
60417;BME280;46263;44.726;10.396;2023-11-21T03:49:37;99788.56;;;14.41;74.03
60417;BME280;46263;44.726;10.396;2023-11-21T03:52:03;99790.41;;;14.46;73.80
60417;BME280;46263;44.726;10.396;2023-11-21T03:54:28;99784.06;;;14.38;73.74
60417;BME280;46263;44.726;10.396;2023-11-21T03:56:54;99787.59;;;14.46;73.90
60417;BME280;46263;44.726;10.396;2023-11-21T03:59:19;99786.50;;;14.34;73.84
60417;BME280;46263;44.726;10.396;2023-11-21T04:01:44;99784.81;;;14.24;74.08
60417;BME280;46263;44.726;10.396;2023-11-21T04:04:10;99792.50;;;14.23;74.01
60417;BME280;46263;44.726;10.396;2023-11-21T04:06:35;99787.81;;;14.26;74.30
60417;BME280;46263;44.726;10.396;2023-11-21T04:09:02;99795.69;;;14.34;74.29
60417;BME280;46263;44.726;10.396;2023-11-21T04:11:29;99787.44;;;14.36;73.52
60417;BME280;46263;44.726;10.396;2023-11-21T04:13:55;99800.91;;;14.38;73.82
60417;BME280;46263;44.726;10.396;2023-11-21T04:16:20;99791.94;;;14.39;73.71
60417;BME280;46263;44.726;10.396;2023-11-21T04:18:46;99789.31;;;14.27;74.01
60417;BME280;46263;44.726;10.396;2023-11-21T04:21:11;99785.00;;;14.40;73.23
60417;BME280;46263;44.726;10.396;2023-11-21T04:23:37;99782.19;;;14.48;73.14
60417;BME280;46263;44.726;10.396;2023-11-21T04:26:02;99792.88;;;14.42;73.00
60417;BME280;46263;44.726;10.396;2023-11-21T04:28:28;99793.81;;;14.44;73.66
60417;BME280;46263;44.726;10.396;2023-11-21T04:30:54;99791.94;;;14.25;72.99
60417;BME280;46263;44.726;10.396;2023-11-21T04:33:20;99795.31;;;14.23;74.10
60417;BME280;46263;44.726;10.396;2023-11-21T04:35:46;99790.44;;;14.16;73.93
60417;BME280;46263;44.726;10.396;2023-11-21T04:38:12;99793.53;;;13.75;75.12
60417;BME280;46263;44.726;10.396;2023-11-21T04:40:37;99789.75;;;13.58;75.74
60417;BME280;46263;44.726;10.396;2023-11-21T04:43:03;99780.94;;;13.47;77.37
60417;BME280;46263;44.726;10.396;2023-11-21T04:45:29;99777.31;;;13.31;77.63
60417;BME280;46263;44.726;10.396;2023-11-21T04:47:54;99789.69;;;13.28;78.59
60417;BME280;46263;44.726;10.396;2023-11-21T04:50:20;99797.59;;;13.45;77.80
60417;BME280;46263;44.726;10.396;2023-11-21T04:52:45;99809.44;;;13.65;77.42
60417;BME280;46263;44.726;10.396;2023-11-21T04:55:10;99802.66;;;13.53;77.67
60417;BME280;46263;44.726;10.396;2023-11-21T04:57:36;99799.22;;;13.33;78.59
60417;BME280;46263;44.726;10.396;2023-11-21T05:00:03;99804.66;;;13.38;79.14
60417;BME280;46263;44.726;10.396;2023-11-21T05:02:31;99801.16;;;13.52;78.52
60417;BME280;46263;44.726;10.396;2023-11-21T05:04:57;99798.53;;;13.47;78.47
60417;BME280;46263;44.726;10.396;2023-11-21T05:07:23;99797.06;;;13.53;78.04
60417;BME280;46263;44.726;10.396;2023-11-21T05:09:49;99802.63;;;13.39;79.29
60417;BME280;46263;44.726;10.396;2023-11-21T05:12:15;99801.13;;;13.38;79.08
60417;BME280;46263;44.726;10.396;2023-11-21T05:14:40;99801.91;;;13.46;79.29
60417;BME280;46263;44.726;10.396;2023-11-21T05:17:07;99794.44;;;13.55;79.03
60417;BME280;46263;44.726;10.396;2023-11-21T05:19:33;99791.47;;;13.68;77.90
60417;BME280;46263;44.726;10.396;2023-11-21T05:22:00;99797.81;;;13.61;78.67
60417;BME280;46263;44.726;10.396;2023-11-21T05:24:26;99812.34;;;13.38;79.85
60417;BME280;46263;44.726;10.396;2023-11-21T05:26:51;99816.44;;;13.37;80.54
60417;BME280;46263;44.726;10.396;2023-11-21T05:29:18;99815.19;;;13.52;80.09
60417;BME280;46263;44.726;10.396;2023-11-21T05:31:43;99813.19;;;13.68;78.74
60417;BME280;46263;44.726;10.396;2023-11-21T05:34:09;99806.03;;;13.59;79.36
60417;BME280;46263;44.726;10.396;2023-11-21T05:36:34;99801.19;;;13.67;78.95
60417;BME280;46263;44.726;10.396;2023-11-21T05:39:02;99801.94;;;13.60;79.01
60417;BME280;46263;44.726;10.396;2023-11-21T05:41:28;99792.19;;;13.54;79.55
60417;BME280;46263;44.726;10.396;2023-11-21T05:43:54;99794.84;;;13.74;79.15
60417;BME280;46263;44.726;10.396;2023-11-21T05:46:19;99800.28;;;13.72;78.45
60417;BME280;46263;44.726;10.396;2023-11-21T05:48:45;99802.94;;;13.85;77.90
60417;BME280;46263;44.726;10.396;2023-11-21T05:51:11;99812.13;;;13.93;77.93
60417;BME280;46263;44.726;10.396;2023-11-21T05:53:39;99814.38;;;14.02;77.54
60417;BME280;46263;44.726;10.396;2023-11-21T05:56:04;99812.53;;;14.20;76.80
60417;BME280;46263;44.726;10.396;2023-11-21T05:58:30;99813.47;;;14.22;76.34
60417;BME280;46263;44.726;10.396;2023-11-21T06:00:55;99807.69;;;14.35;75.98
60417;BME280;46263;44.726;10.396;2023-11-21T06:03:21;99802.06;;;14.35;76.63
60417;BME280;46263;44.726;10.396;2023-11-21T06:05:46;99814.03;;;14.35;76.35
60417;BME280;46263;44.726;10.396;2023-11-21T06:08:11;99817.97;;;14.40;75.23
60417;BME280;46263;44.726;10.396;2023-11-21T06:10:37;99806.34;;;14.43;74.97
60417;BME280;46263;44.726;10.396;2023-11-21T06:13:02;99799.06;;;14.33;76.08
60417;BME280;46263;44.726;10.396;2023-11-21T06:15:29;99798.28;;;13.95;77.13
60417;BME280;46263;44.726;10.396;2023-11-21T06:17:55;99800.47;;;13.74;78.75
60417;BME280;46263;44.726;10.396;2023-11-21T06:20:21;99805.81;;;13.43;81.16
60417;BME280;46263;44.726;10.396;2023-11-21T06:22:49;99807.50;;;13.53;80.68
60417;BME280;46263;44.726;10.396;2023-11-21T06:25:15;99809.06;;;13.61;81.29
60417;BME280;46263;44.726;10.396;2023-11-21T06:27:43;99801.44;;;13.84;79.72
60417;BME280;46263;44.726;10.396;2023-11-21T06:30:10;99788.16;;;14.00;79.51
60417;BME280;46263;44.726;10.396;2023-11-21T06:32:37;99790.44;;;14.16;78.29
60417;BME280;46263;44.726;10.396;2023-11-21T06:35:04;99788.94;;;14.15;78.19
60417;BME280;46263;44.726;10.396;2023-11-21T06:37:30;99790.44;;;14.16;78.63
60417;BME280;46263;44.726;10.396;2023-11-21T06:39:56;99796.81;;;14.17;79.58
60417;BME280;46263;44.726;10.396;2023-11-21T06:42:23;99790.81;;;14.28;79.49
60417;BME280;46263;44.726;10.396;2023-11-21T06:44:49;99795.31;;;14.23;79.41
60417;BME280;46263;44.726;10.396;2023-11-21T06:47:17;99791.94;;;14.25;79.33
60417;BME280;46263;44.726;10.396;2023-11-21T06:49:42;99787.81;;;14.18;79.31
60417;BME280;46263;44.726;10.396;2023-11-21T06:52:08;99789.31;;;14.27;80.00
60417;BME280;46263;44.726;10.396;2023-11-21T06:54:34;99788.38;;;14.32;79.15
60417;BME280;46263;44.726;10.396;2023-11-21T06:57:00;99790.81;;;14.35;79.03
60417;BME280;46263;44.726;10.396;2023-11-21T06:59:25;99788.19;;;14.30;79.39
60417;BME280;46263;44.726;10.396;2023-11-21T07:01:51;99776.38;;;14.31;79.47
60417;BME280;46263;44.726;10.396;2023-11-21T07:04:16;99778.81;;;14.34;79.10
60417;BME280;46263;44.726;10.396;2023-11-21T07:06:43;99773.16;;;13.90;80.92
60417;BME280;46263;44.726;10.396;2023-11-21T07:09:09;99776.31;;;13.71;82.30
60417;BME280;46263;44.726;10.396;2023-11-21T07:11:35;99773.72;;;13.88;82.54
60417;BME280;46263;44.726;10.396;2023-11-21T07:14:01;99772.78;;;13.78;83.26
60417;BME280;46263;44.726;10.396;2023-11-21T07:16:35;99771.00;;;13.46;84.41
60417;BME280;46263;44.726;10.396;2023-11-21T07:19:06;99774.81;;;13.70;84.35
60417;BME280;46263;44.726;10.396;2023-11-21T07:21:35;99774.28;;;13.79;83.62
60417;BME280;46263;44.726;10.396;2023-11-21T07:24:01;99776.63;;;13.53;84.25
60417;BME280;46263;44.726;10.396;2023-11-21T07:26:28;99775.91;;;13.52;84.98
60417;BME280;46263;44.726;10.396;2023-11-21T07:28:53;99764.88;;;13.54;84.49
60417;BME280;46263;44.726;10.396;2023-11-21T07:31:19;99758.34;;;13.74;83.29
60417;BME280;46263;44.726;10.396;2023-11-21T07:33:48;99766.59;;;13.87;82.13
60417;BME280;46263;44.726;10.396;2023-11-21T07:36:14;99770.19;;;13.95;81.68
60417;BME280;46263;44.726;10.396;2023-11-21T07:38:41;99771.13;;;14.05;81.73
60417;BME280;46263;44.726;10.396;2023-11-21T07:41:07;99781.78;;;14.07;81.52
60417;BME280;46263;44.726;10.396;2023-11-21T07:43:35;99768.31;;;14.05;81.24
60417;BME280;46263;44.726;10.396;2023-11-21T07:46:02;99761.56;;;14.01;81.16
60417;BME280;46263;44.726;10.396;2023-11-21T07:48:30;99761.75;;;13.95;81.88
60417;BME280;46263;44.726;10.396;2023-11-21T07:50:57;99757.63;;;13.96;82.65
60417;BME280;46263;44.726;10.396;2023-11-21T07:53:25;99762.69;;;14.05;82.05
60417;BME280;46263;44.726;10.396;2023-11-21T07:55:54;99763.63;;;14.15;81.11
60417;BME280;46263;44.726;10.396;2023-11-21T07:58:19;99773.00;;;14.25;79.93
60417;BME280;46263;44.726;10.396;2023-11-21T08:00:45;99778.06;;;14.27;79.59
60417;BME280;46263;44.726;10.396;2023-11-21T08:03:10;99773.75;;;14.26;78.87
60417;BME280;46263;44.726;10.396;2023-11-21T08:05:36;99776.19;;;14.36;78.92
60417;BME280;46263;44.726;10.396;2023-11-21T08:08:02;99785.75;;;14.41;77.90
60417;BME280;46263;44.726;10.396;2023-11-21T08:10:27;99776.94;;;14.37;78.10
60417;BME280;46263;44.726;10.396;2023-11-21T08:12:53;99770.75;;;14.31;77.87
60417;BME280;46263;44.726;10.396;2023-11-21T08:15:19;99768.69;;;14.39;79.45
60417;BME280;46263;44.726;10.396;2023-11-21T08:17:46;99761.94;;;14.42;79.27
60417;BME280;46263;44.726;10.396;2023-11-21T08:20:11;99772.25;;;14.47;80.24
60417;BME280;46263;44.726;10.396;2023-11-21T08:22:37;99772.03;;;14.60;80.01
60417;BME280;46263;44.726;10.396;2023-11-21T08:25:03;99776.56;;;14.55;80.98
60417;BME280;46263;44.726;10.396;2023-11-21T08:27:31;99778.44;;;14.53;82.93
60417;BME280;46263;44.726;10.396;2023-11-21T08:29:57;99774.28;;;14.54;80.58
60417;BME280;46263;44.726;10.396;2023-11-21T08:32:22;99788.19;;;14.52;81.12
60417;BME280;46263;44.726;10.396;2023-11-21T08:34:47;99792.13;;;14.19;83.43
60417;BME280;46263;44.726;10.396;2023-11-21T08:37:16;99787.94;;;13.68;85.37
60417;BME280;46263;44.726;10.396;2023-11-21T08:39:43;99791.13;;;13.79;85.89
60417;BME280;46263;44.726;10.396;2023-11-21T08:42:09;99792.03;;;13.67;86.84
60417;BME280;46263;44.726;10.396;2023-11-21T08:44:34;99785.25;;;13.48;87.21
60417;BME280;46263;44.726;10.396;2023-11-21T08:47:00;99781.34;;;13.65;87.49
60417;BME280;46263;44.726;10.396;2023-11-21T08:49:25;99795.22;;;13.71;86.20
60417;BME280;46263;44.726;10.396;2023-11-21T08:51:53;99795.63;;;13.90;85.71
60417;BME280;46263;44.726;10.396;2023-11-21T08:54:21;99798.25;;;13.80;84.92
60417;BME280;46263;44.726;10.396;2023-11-21T08:56:46;99794.50;;;13.85;84.69
60417;BME280;46263;44.726;10.396;2023-11-21T08:59:13;99804.25;;;13.99;84.24
60417;BME280;46263;44.726;10.396;2023-11-21T09:01:39;99799.03;;;14.03;84.80
60417;BME280;46263;44.726;10.396;2023-11-21T09:07:46;99805.06;;;14.15;82.25
60417;BME280;46263;44.726;10.396;2023-11-21T09:10:12;99810.66;;;14.22;82.24
60417;BME280;46263;44.726;10.396;2023-11-21T09:12:38;99803.34;;;14.04;82.80
60417;BME280;46263;44.726;10.396;2023-11-21T09:15:07;99801.63;;;13.86;84.14
60417;BME280;46263;44.726;10.396;2023-11-21T09:17:35;99798.03;;;13.86;84.22
60417;BME280;46263;44.726;10.396;2023-11-21T09:20:00;99805.00;;;14.07;83.27
60417;BME280;46263;44.726;10.396;2023-11-21T09:22:26;99795.31;;;14.23;81.42
60417;BME280;46263;44.726;10.396;2023-11-21T09:24:52;99794.75;;;14.32;81.44
60417;BME280;46263;44.726;10.396;2023-11-21T09:27:18;99804.69;;;14.18;81.28
60417;BME280;46263;44.726;10.396;2023-11-21T09:29:43;99791.91;;;14.02;81.11
60417;BME280;46263;44.726;10.396;2023-11-21T09:32:09;99801.44;;;13.99;81.80
60417;BME280;46263;44.726;10.396;2023-11-21T09:34:39;99800.53;;;14.04;81.58
60417;BME280;46263;44.726;10.396;2023-11-21T09:37:05;99795.13;;;14.21;81.98
60417;BME280;46263;44.726;10.396;2023-11-21T09:39:32;99801.69;;;14.16;81.27
60417;BME280;46263;44.726;10.396;2023-11-21T09:42:12;99806.13;;;13.97;83.10
60417;BME280;46263;44.726;10.396;2023-11-21T09:47:09;99800.47;;;13.74;86.31
60417;BME280;46263;44.726;10.396;2023-11-21T09:49:37;99797.13;;;13.76;87.04
60417;BME280;46263;44.726;10.396;2023-11-21T09:52:04;99782.09;;;13.73;87.56
60417;BME280;46263;44.726;10.396;2023-11-21T09:54:31;99774.06;;;13.77;87.17
60417;BME280;46263;44.726;10.396;2023-11-21T09:56:59;99764.16;;;13.84;86.61
60417;BME280;46263;44.726;10.396;2023-11-21T09:59:30;99754.63;;;14.09;85.83
60417;BME280;46263;44.726;10.396;2023-11-21T10:01:57;99754.28;;;14.20;85.50
60417;BME280;46263;44.726;10.396;2023-11-21T10:04:24;99746.19;;;14.39;84.36
60417;BME280;46263;44.726;10.396;2023-11-21T10:06:50;99744.13;;;14.47;82.82
60417;BME280;46263;44.726;10.396;2023-11-21T10:09:15;99736.84;;;14.22;83.63
60417;BME280;46263;44.726;10.396;2023-11-21T10:11:42;99734.59;;;14.28;83.19
60417;BME280;46263;44.726;10.396;2023-11-21T10:14:11;99733.44;;;14.08;82.94
60417;BME280;46263;44.726;10.396;2023-11-21T10:16:41;99728.97;;;14.35;80.90
60417;BME280;46263;44.726;10.396;2023-11-21T10:19:10;99729.34;;;14.32;80.89
60417;BME280;46263;44.726;10.396;2023-11-21T10:21:38;99727.09;;;14.45;81.98
60417;BME280;46263;44.726;10.396;2023-11-21T10:24:04;99720.69;;;14.44;81.33
60417;BME280;46263;44.726;10.396;2023-11-21T10:26:29;99723.53;;;14.22;82.16
60417;BME280;46263;44.726;10.396;2023-11-21T10:29:00;99709.09;;;14.33;82.28
60417;BME280;46263;44.726;10.396;2023-11-21T10:31:29;99712.84;;;14.43;80.76
60417;BME280;46263;44.726;10.396;2023-11-21T10:34:13;99712.25;;;14.52;80.10
60417;BME280;46263;44.726;10.396;2023-11-21T10:36:39;99719.00;;;14.49;80.58
60417;BME280;46263;44.726;10.396;2023-11-21T10:39:04;99704.16;;;14.56;80.96
60417;BME280;46263;44.726;10.396;2023-11-21T10:41:30;99710.34;;;14.62;79.70
60417;BME280;46263;44.726;10.396;2023-11-21T10:43:55;99717.66;;;14.65;80.17
60417;BME280;46263;44.726;10.396;2023-11-21T10:46:21;99722.72;;;14.59;79.21
60417;BME280;46263;44.726;10.396;2023-11-21T10:48:57;99711.84;;;14.63;79.81
60417;BME280;46263;44.726;10.396;2023-11-21T10:51:22;99716.72;;;14.70;79.59
60417;BME280;46263;44.726;10.396;2023-11-21T10:53:54;99701.88;;;14.77;79.45
60417;BME280;46263;44.726;10.396;2023-11-21T10:56:23;99700.44;;;14.61;78.79
60417;BME280;46263;44.726;10.396;2023-11-21T10:58:49;99701.44;;;14.88;80.57
60417;BME280;46263;44.726;10.396;2023-11-21T11:01:19;99696.38;;;14.86;80.51
60417;BME280;46263;44.726;10.396;2023-11-21T11:03:46;99696.53;;;14.96;78.82
60417;BME280;46263;44.726;10.396;2023-11-21T11:06:13;99698.28;;;14.84;78.99
60417;BME280;46263;44.726;10.396;2023-11-21T11:08:38;99703.31;;;14.93;78.77
60417;BME280;46263;44.726;10.396;2023-11-21T11:11:08;99710.91;;;14.60;77.42
60417;BME280;46263;44.726;10.396;2023-11-21T11:13:35;99710.22;;;14.30;80.32
60417;BME280;46263;44.726;10.396;2023-11-21T11:16:01;99707.28;;;14.13;83.63
60417;BME280;46263;44.726;10.396;2023-11-21T11:18:30;99700.88;;;14.13;82.14
60417;BME280;46263;44.726;10.396;2023-11-21T11:21:36;99714.38;;;14.22;83.00
60417;BME280;46263;44.726;10.396;2023-11-21T11:24:24;99707.78;;;14.41;81.47
60417;BME280;46263;44.726;10.396;2023-11-21T11:27:15;99711.34;;;14.34;80.91
60417;BME280;46263;44.726;10.396;2023-11-21T11:35:11;99706.78;;;14.54;81.35
60417;BME280;46263;44.726;10.396;2023-11-21T11:37:43;99712.28;;;14.37;79.60
60417;BME280;46263;44.726;10.396;2023-11-21T11:40:11;99708.56;;;14.27;81.09
60417;BME280;46263;44.726;10.396;2023-11-21T11:42:36;99706.50;;;14.20;81.32
60417;BME280;46263;44.726;10.396;2023-11-21T11:45:02;99709.47;;;14.37;81.09
60417;BME280;46263;44.726;10.396;2023-11-21T11:47:42;99709.03;;;14.63;81.35
60417;BME280;46263;44.726;10.396;2023-11-21T11:50:10;99704.31;;;14.73;82.01
60417;BME280;46263;44.726;10.396;2023-11-21T11:52:40;99709.72;;;14.86;81.68
60417;BME280;46263;44.726;10.396;2023-11-21T11:55:13;99710.59;;;14.96;80.46
60417;BME280;46263;44.726;10.396;2023-11-21T11:57:41;99702.94;;;14.89;80.27
60417;BME280;46263;44.726;10.396;2023-11-21T12:02:35;99713.59;;;14.98;79.18
60417;BME280;46263;44.726;10.396;2023-11-21T12:05:10;99706.50;;;14.89;77.13
60417;BME280;46263;44.726;10.396;2023-11-21T12:07:46;99703.25;;;15.00;78.46
60417;BME280;46263;44.726;10.396;2023-11-21T12:10:15;99702.88;;;15.04;78.81
60417;BME280;46263;44.726;10.396;2023-11-21T12:12:47;99711.53;;;14.98;79.50
60417;BME280;46263;44.726;10.396;2023-11-21T12:15:13;99716.94;;;15.04;79.52
60417;BME280;46263;44.726;10.396;2023-11-21T12:17:43;99711.28;;;15.11;79.61
60417;BME280;46263;44.726;10.396;2023-11-21T12:20:09;99713.88;;;15.16;79.66
60417;BME280;46263;44.726;10.396;2023-11-21T12:22:48;99714.63;;;15.17;79.23
60417;BME280;46263;44.726;10.396;2023-11-21T12:25:21;99710.88;;;15.22;77.73
60417;BME280;46263;44.726;10.396;2023-11-21T12:27:49;99712.72;;;15.19;78.04
60417;BME280;46263;44.726;10.396;2023-11-21T12:30:17;99709.75;;;15.17;76.89
60417;BME280;46263;44.726;10.396;2023-11-21T12:32:44;99710.66;;;15.27;77.47
60417;BME280;46263;44.726;10.396;2023-11-21T12:35:12;99708.53;;;15.35;76.69
60417;BME280;46263;44.726;10.396;2023-11-21T12:37:38;99711.31;;;15.43;76.06
60417;BME280;46263;44.726;10.396;2023-11-21T12:40:09;99703.78;;;15.45;76.94
60417;BME280;46263;44.726;10.396;2023-11-21T12:42:41;99701.16;;;15.47;76.73
60417;BME280;46263;44.726;10.396;2023-11-21T12:45:08;99700.06;;;15.43;76.27
60417;BME280;46263;44.726;10.396;2023-11-21T12:47:39;99694.75;;;15.47;77.30
60417;BME280;46263;44.726;10.396;2023-11-21T12:50:06;99694.75;;;15.47;77.20
60417;BME280;46263;44.726;10.396;2023-11-21T12:52:32;99689.72;;;15.45;76.18
60417;BME280;46263;44.726;10.396;2023-11-21T12:54:58;99686.09;;;15.52;76.50
60417;BME280;46263;44.726;10.396;2023-11-21T12:57:27;99687.78;;;15.55;77.56
60417;BME280;46263;44.726;10.396;2023-11-21T12:59:57;99676.63;;;15.65;77.28
60417;BME280;46263;44.726;10.396;2023-11-21T13:02:26;99677.59;;;15.60;77.21